sensor_id;sensor_type;location;lat;lon;timestamp;pressure;altitude;pressure_sealevel;temperature;humidity
70982;BME280;58640;51.320;9.456;2023-05-12T06:14:04;99437.63;;;19.58;62.33
70982;BME280;58640;51.320;9.456;2023-05-12T13:50:04;99433.66;;;19.42;41.13
70982;BME280;58640;51.320;9.456;2023-05-12T13:52:30;99414.84;;;19.64;41.20
70982;BME280;58640;51.320;9.456;2023-05-12T13:54:55;99419.34;;;19.58;40.96
70982;BME280;58640;51.320;9.456;2023-05-12T13:57:23;99423.00;;;19.52;41.21
70982;BME280;58640;51.320;9.456;2023-05-12T13:59:48;99425.56;;;19.36;41.17
70982;BME280;58640;51.320;9.456;2023-05-12T14:02:14;99420.09;;;19.36;40.72
70982;BME280;58640;51.320;9.456;2023-05-12T14:04:40;99418.63;;;19.51;40.43
70982;BME280;58640;51.320;9.456;2023-05-12T14:07:05;99411.72;;;19.49;39.31
70982;BME280;58640;51.320;9.456;2023-05-12T14:09:31;99419.69;;;19.50;39.05
70982;BME280;58640;51.320;9.456;2023-05-12T14:11:56;99411.91;;;19.77;38.55
70982;BME280;58640;51.320;9.456;2023-05-12T14:14:23;99407.31;;;20.00;38.19
70982;BME280;58640;51.320;9.456;2023-05-12T14:16:48;99411.25;;;20.27;38.23
70982;BME280;58640;51.320;9.456;2023-05-12T14:19:14;99401.72;;;20.42;34.82
70982;BME280;58640;51.320;9.456;2023-05-12T14:21:39;99408.94;;;20.71;33.89
70982;BME280;58640;51.320;9.456;2023-05-12T14:24:08;99410.97;;;20.52;33.10
70982;BME280;58640;51.320;9.456;2023-05-12T14:26:34;99404.56;;;20.58;33.83
70982;BME280;58640;51.320;9.456;2023-05-12T14:29:00;99413.78;;;20.69;34.22
70982;BME280;58640;51.320;9.456;2023-05-12T14:31:25;99415.50;;;20.47;33.79
70982;BME280;58640;51.320;9.456;2023-05-12T14:33:50;99427.59;;;20.51;33.28
70982;BME280;58640;51.320;9.456;2023-05-12T14:36:17;99418.84;;;20.37;34.11
70982;BME280;58640;51.320;9.456;2023-05-12T14:38:43;99416.22;;;20.30;34.45
70982;BME280;58640;51.320;9.456;2023-05-12T14:41:08;99424.66;;;20.17;34.82
70982;BME280;58640;51.320;9.456;2023-05-12T14:43:34;99420.38;;;20.10;35.05
70982;BME280;58640;51.320;9.456;2023-05-12T14:45:59;99427.16;;;20.19;35.31
70982;BME280;58640;51.320;9.456;2023-05-12T14:48:26;99434.59;;;20.00;35.75
70982;BME280;58640;51.320;9.456;2023-05-12T14:50:52;99425.59;;;20.11;36.04
70982;BME280;58640;51.320;9.456;2023-05-12T14:53:18;99422.59;;;20.01;35.78
70982;BME280;58640;51.320;9.456;2023-05-12T14:55:44;99428.47;;;20.16;36.25
70982;BME280;58640;51.320;9.456;2023-05-12T14:58:10;99434.25;;;19.97;36.19
70982;BME280;58640;51.320;9.456;2023-05-12T15:00:35;99434.59;;;19.89;36.16
70982;BME280;58640;51.320;9.456;2023-05-12T15:03:01;99431.00;;;19.88;36.32
70982;BME280;58640;51.320;9.456;2023-05-12T15:05:29;99441.72;;;20.01;36.93
70982;BME280;58640;51.320;9.456;2023-05-12T15:07:55;99434.38;;;20.02;34.99
70982;BME280;58640;51.320;9.456;2023-05-12T15:10:21;99431.16;;;19.93;34.73
70982;BME280;58640;51.320;9.456;2023-05-12T15:12:50;99424.28;;;20.02;35.58
70982;BME280;58640;51.320;9.456;2023-05-12T15:15:15;99436.38;;;20.06;34.81
70982;BME280;58640;51.320;9.456;2023-05-12T15:17:40;99436.38;;;20.06;35.89
70982;BME280;58640;51.320;9.456;2023-05-12T15:20:07;99429.75;;;20.14;35.67
70982;BME280;58640;51.320;9.456;2023-05-12T15:22:32;99427.13;;;19.96;35.68
70982;BME280;58640;51.320;9.456;2023-05-12T15:24:58;99425.31;;;19.90;35.67
70982;BME280;58640;51.320;9.456;2023-05-12T15:27:24;99423.94;;;19.99;36.08
70982;BME280;58640;51.320;9.456;2023-05-12T15:29:50;99432.47;;;20.02;36.51
70982;BME280;58640;51.320;9.456;2023-05-12T15:32:15;99422.50;;;20.08;41.86
70982;BME280;58640;51.320;9.456;2023-05-12T15:34:41;99429.75;;;20.02;36.27
70982;BME280;58640;51.320;9.456;2023-05-12T15:37:06;99433.16;;;19.98;36.46
70982;BME280;58640;51.320;9.456;2023-05-12T15:39:32;99430.53;;;19.91;36.76
70982;BME280;58640;51.320;9.456;2023-05-12T15:41:57;99434.84;;;19.99;36.59
70982;BME280;58640;51.320;9.456;2023-05-12T15:44:23;99431.50;;;19.97;36.60
70982;BME280;58640;51.320;9.456;2023-05-12T15:46:48;99427.88;;;20.14;36.99
70982;BME280;58640;51.320;9.456;2023-05-12T15:49:14;99433.91;;;20.05;37.41
70982;BME280;58640;51.320;9.456;2023-05-12T15:51:39;99425.38;;;20.24;36.81
70982;BME280;58640;51.320;9.456;2023-05-12T15:54:05;99425.28;;;20.31;36.50
70982;BME280;58640;51.320;9.456;2023-05-12T15:56:30;99430.84;;;20.24;36.33
70982;BME280;58640;51.320;9.456;2023-05-12T15:58:56;99423.09;;;20.33;37.28
70982;BME280;58640;51.320;9.456;2023-05-12T16:01:22;99425.22;;;20.54;36.81
70982;BME280;58640;51.320;9.456;2023-05-12T16:03:49;99426.91;;;20.55;36.15
70982;BME280;58640;51.320;9.456;2023-05-12T16:06:14;99427.00;;;20.60;35.84
70982;BME280;58640;51.320;9.456;2023-05-12T16:08:40;99432.44;;;20.72;35.56
70982;BME280;58640;51.320;9.456;2023-05-12T16:11:05;99430.81;;;20.59;34.98
70982;BME280;58640;51.320;9.456;2023-05-12T16:13:30;99434.38;;;20.60;35.20
70982;BME280;58640;51.320;9.456;2023-05-12T16:15:56;99426.50;;;20.75;34.92
70982;BME280;58640;51.320;9.456;2023-05-12T16:18:21;99437.94;;;20.60;34.15
70982;BME280;58640;51.320;9.456;2023-05-12T16:20:46;99434.16;;;20.38;34.05
70982;BME280;58640;51.320;9.456;2023-05-12T16:23:12;99438.09;;;20.30;34.74
70982;BME280;58640;51.320;9.456;2023-05-12T16:25:38;99423.00;;;20.16;36.17
70982;BME280;58640;51.320;9.456;2023-05-12T16:28:05;99423.56;;;20.07;35.60
70982;BME280;58640;51.320;9.456;2023-05-12T16:30:30;99437.34;;;20.12;36.51
70982;BME280;58640;51.320;9.456;2023-05-12T16:32:55;99434.13;;;19.92;36.82
70982;BME280;58640;51.320;9.456;2023-05-12T16:35:21;99433.00;;;19.70;36.95
70982;BME280;58640;51.320;9.456;2023-05-12T16:37:46;99436.25;;;19.90;36.17
70982;BME280;58640;51.320;9.456;2023-05-12T16:40:12;99434.97;;;19.92;36.47
70982;BME280;58640;51.320;9.456;2023-05-12T16:42:38;99432.94;;;19.88;36.55
70982;BME280;58640;51.320;9.456;2023-05-12T16:45:04;99431.22;;;19.75;36.66
70982;BME280;58640;51.320;9.456;2023-05-12T16:47:30;99435.78;;;19.81;36.30
70982;BME280;58640;51.320;9.456;2023-05-12T16:49:55;99437.09;;;19.90;36.01
70982;BME280;58640;51.320;9.456;2023-05-12T16:52:23;99429.97;;;19.89;36.14
70982;BME280;58640;51.320;9.456;2023-05-12T16:54:48;99433.16;;;19.75;36.29
70982;BME280;58640;51.320;9.456;2023-05-12T16:57:14;99435.38;;;19.66;36.55
70982;BME280;58640;51.320;9.456;2023-05-12T16:59:40;99444.16;;;19.68;37.18
70982;BME280;58640;51.320;9.456;2023-05-12T17:02:05;99434.69;;;19.82;36.34
70982;BME280;58640;51.320;9.456;2023-05-12T17:04:32;99443.38;;;19.91;36.34
70982;BME280;58640;51.320;9.456;2023-05-12T17:06:57;99442.19;;;19.87;38.49
70982;BME280;58640;51.320;9.456;2023-05-12T17:09:23;99432.81;;;19.83;36.69
70982;BME280;58640;51.320;9.456;2023-05-12T17:11:48;99444.09;;;19.86;36.85
70982;BME280;58640;51.320;9.456;2023-05-12T17:14:14;99442.63;;;19.72;37.80
70982;BME280;58640;51.320;9.456;2023-05-12T17:16:40;99441.56;;;19.73;37.66
70982;BME280;58640;51.320;9.456;2023-05-12T17:19:06;99443.81;;;19.76;36.99
70982;BME280;58640;51.320;9.456;2023-05-12T17:21:31;99433.34;;;19.62;38.03
70982;BME280;58640;51.320;9.456;2023-05-12T17:23:57;99441.16;;;19.58;38.13
70982;BME280;58640;51.320;9.456;2023-05-12T17:26:23;99441.59;;;19.44;38.88
70982;BME280;58640;51.320;9.456;2023-05-12T17:28:51;99446.50;;;19.53;38.31
70982;BME280;58640;51.320;9.456;2023-05-12T17:31:17;99449.91;;;19.49;38.58
70982;BME280;58640;51.320;9.456;2023-05-12T17:33:42;99446.50;;;19.53;38.74
70982;BME280;58640;51.320;9.456;2023-05-12T17:36:07;99448.97;;;19.55;38.71
70982;BME280;58640;51.320;9.456;2023-05-12T17:38:33;99457.50;;;19.47;38.38
70982;BME280;58640;51.320;9.456;2023-05-12T17:40:58;99457.88;;;19.50;38.92
70982;BME280;58640;51.320;9.456;2023-05-12T17:43:23;99455.69;;;19.41;38.33
70982;BME280;58640;51.320;9.456;2023-05-12T17:45:49;99447.97;;;19.38;38.49
70982;BME280;58640;51.320;9.456;2023-05-12T17:48:14;99464.59;;;19.36;38.68
70982;BME280;58640;51.320;9.456;2023-05-12T17:50:40;99454.66;;;19.24;39.02
70982;BME280;58640;51.320;9.456;2023-05-12T17:53:05;99458.03;;;19.08;40.48
70982;BME280;58640;51.320;9.456;2023-05-12T17:55:31;99465.44;;;19.01;40.34
70982;BME280;58640;51.320;9.456;2023-05-12T17:57:57;99472.44;;;18.97;41.05
70982;BME280;58640;51.320;9.456;2023-05-12T18:00:23;99468.41;;;18.99;40.58
70982;BME280;58640;51.320;9.456;2023-05-12T18:02:49;99478.13;;;18.95;41.35
70982;BME280;58640;51.320;9.456;2023-05-12T18:05:14;99480.69;;;18.90;41.29
70982;BME280;58640;51.320;9.456;2023-05-12T18:07:39;99474.09;;;18.98;40.67
70982;BME280;58640;51.320;9.456;2023-05-12T18:10:06;99479.38;;;19.11;40.76
70982;BME280;58640;51.320;9.456;2023-05-12T18:12:32;99477.81;;;19.03;40.67
70982;BME280;58640;51.320;9.456;2023-05-12T18:14:57;99482.09;;;18.92;41.13
70982;BME280;58640;51.320;9.456;2023-05-12T18:17:23;99482.41;;;18.84;41.22
70982;BME280;58640;51.320;9.456;2023-05-12T18:19:48;99488.03;;;18.89;41.36
70982;BME280;58640;51.320;9.456;2023-05-12T18:22:13;99479.41;;;18.74;41.58
70982;BME280;58640;51.320;9.456;2023-05-12T18:24:40;99485.38;;;18.65;41.99
70982;BME280;58640;51.320;9.456;2023-05-12T18:27:06;99480.41;;;18.62;42.29
70982;BME280;58640;51.320;9.456;2023-05-12T18:29:31;99484.63;;;18.58;42.21
70982;BME280;58640;51.320;9.456;2023-05-12T18:31:56;99482.56;;;18.53;42.70
70982;BME280;58640;51.320;9.456;2023-05-12T18:34:22;99492.91;;;18.45;43.13
70982;BME280;58640;51.320;9.456;2023-05-12T18:36:48;99492.53;;;18.41;43.06
70982;BME280;58640;51.320;9.456;2023-05-12T18:39:13;99483.19;;;18.31;43.61
70982;BME280;58640;51.320;9.456;2023-05-12T18:41:39;99489.53;;;18.25;46.00
70982;BME280;58640;51.320;9.456;2023-05-12T18:44:04;99489.59;;;18.18;45.47
70982;BME280;58640;51.320;9.456;2023-05-12T18:46:30;99491.53;;;18.11;46.09
70982;BME280;58640;51.320;9.456;2023-05-12T18:48:55;99490.53;;;18.06;46.98
70982;BME280;58640;51.320;9.456;2023-05-12T18:51:21;99490.81;;;17.98;47.17
70982;BME280;58640;51.320;9.456;2023-05-12T18:53:46;99493.59;;;17.91;48.23
70982;BME280;58640;51.320;9.456;2023-05-12T18:56:12;99495.50;;;17.84;49.15
70982;BME280;58640;51.320;9.456;2023-05-12T18:58:37;99499.97;;;17.79;49.13
70982;BME280;58640;51.320;9.456;2023-05-12T19:01:03;99504.16;;;17.75;49.70
70982;BME280;58640;51.320;9.456;2023-05-12T19:03:28;99503.97;;;17.70;50.04
70982;BME280;58640;51.320;9.456;2023-05-12T19:05:55;99515.09;;;17.68;50.34
70982;BME280;58640;51.320;9.456;2023-05-12T19:08:21;99516.81;;;17.63;50.49
70982;BME280;58640;51.320;9.456;2023-05-12T19:10:47;99509.31;;;17.58;51.30
70982;BME280;58640;51.320;9.456;2023-05-12T19:13:12;99520.22;;;17.52;51.62
70982;BME280;58640;51.320;9.456;2023-05-12T19:15:37;99513.31;;;17.42;51.98
70982;BME280;58640;51.320;9.456;2023-05-12T19:18:03;99527.59;;;17.38;53.07
70982;BME280;58640;51.320;9.456;2023-05-12T19:20:29;99529.66;;;17.36;53.42
70982;BME280;58640;51.320;9.456;2023-05-12T19:22:55;99524.88;;;17.31;53.81
70982;BME280;58640;51.320;9.456;2023-05-12T19:25:20;99524.50;;;17.28;54.29
70982;BME280;58640;51.320;9.456;2023-05-12T19:27:45;99529.75;;;17.23;54.61
70982;BME280;58640;51.320;9.456;2023-05-12T19:30:12;99533.72;;;17.20;55.95
70982;BME280;58640;51.320;9.456;2023-05-12T19:32:38;99537.28;;;17.21;55.78
70982;BME280;58640;51.320;9.456;2023-05-12T19:35:04;99536.25;;;17.15;57.00
70982;BME280;58640;51.320;9.456;2023-05-12T19:37:31;99541.31;;;17.12;57.10
70982;BME280;58640;51.320;9.456;2023-05-12T19:39:57;99542.78;;;17.08;56.26
70982;BME280;58640;51.320;9.456;2023-05-12T19:42:23;99546.34;;;17.02;56.53
70982;BME280;58640;51.320;9.456;2023-05-12T19:44:48;99553.03;;;16.99;56.71
70982;BME280;58640;51.320;9.456;2023-05-12T19:47:14;99552.66;;;16.96;57.08
70982;BME280;58640;51.320;9.456;2023-05-12T19:49:39;99560.16;;;17.00;57.93
70982;BME280;58640;51.320;9.456;2023-05-12T19:52:05;99552.25;;;16.92;59.04
70982;BME280;58640;51.320;9.456;2023-05-12T19:54:31;99549.94;;;16.89;59.09
70982;BME280;58640;51.320;9.456;2023-05-12T19:56:56;99556.03;;;16.85;60.17
70982;BME280;58640;51.320;9.456;2023-05-12T19:59:22;99544.97;;;16.80;60.76
70982;BME280;58640;51.320;9.456;2023-05-12T20:01:49;99548.94;;;16.77;61.66
70982;BME280;58640;51.320;9.456;2023-05-12T20:04:14;99551.44;;;16.72;61.35
70982;BME280;58640;51.320;9.456;2023-05-12T20:06:40;99552.91;;;16.68;62.12
70982;BME280;58640;51.320;9.456;2023-05-12T20:09:06;99555.66;;;16.62;62.68
70982;BME280;58640;51.320;9.456;2023-05-12T20:11:32;99555.00;;;16.60;63.38
70982;BME280;58640;51.320;9.456;2023-05-12T20:13:57;99555.22;;;16.52;63.82
70982;BME280;58640;51.320;9.456;2023-05-12T20:16:23;99556.47;;;16.43;62.38
70982;BME280;58640;51.320;9.456;2023-05-12T20:18:48;99560.63;;;16.39;61.68
70982;BME280;58640;51.320;9.456;2023-05-12T20:21:15;99560.03;;;16.37;61.58
70982;BME280;58640;51.320;9.456;2023-05-12T20:23:40;99559.63;;;16.33;61.40
70982;BME280;58640;51.320;9.456;2023-05-12T20:26:06;99561.91;;;16.30;61.99
70982;BME280;58640;51.320;9.456;2023-05-12T20:28:31;99565.03;;;16.27;63.07
70982;BME280;58640;51.320;9.456;2023-05-12T20:30:57;99565.88;;;16.21;62.34
70982;BME280;58640;51.320;9.456;2023-05-12T20:33:22;99561.69;;;16.18;61.78
70982;BME280;58640;51.320;9.456;2023-05-12T20:35:48;99560.66;;;16.19;61.83
70982;BME280;58640;51.320;9.456;2023-05-12T20:38:15;99566.09;;;16.13;62.41
70982;BME280;58640;51.320;9.456;2023-05-12T20:40:41;99564.00;;;16.08;62.64
70982;BME280;58640;51.320;9.456;2023-05-12T20:43:06;99568.59;;;16.07;62.10
70982;BME280;58640;51.320;9.456;2023-05-12T20:45:32;99573.38;;;16.05;62.93
70982;BME280;58640;51.320;9.456;2023-05-12T20:47:58;99565.88;;;16.01;63.21
70982;BME280;58640;51.320;9.456;2023-05-12T20:50:31;99571.28;;;15.94;62.97
70982;BME280;58640;51.320;9.456;2023-05-12T20:53:11;99571.25;;;15.88;62.40
70982;BME280;58640;51.320;9.456;2023-05-12T22:08:49;99571.78;;;14.14;71.83
70982;BME280;58640;51.320;9.456;2023-05-12T22:11:15;99568.81;;;14.09;71.86
70982;BME280;58640;51.320;9.456;2023-05-12T22:13:43;99586.69;;;14.04;72.41
70982;BME280;58640;51.320;9.456;2023-05-12T22:16:08;99581.00;;;13.99;73.15
70982;BME280;58640;51.320;9.456;2023-05-12T22:18:36;99577.47;;;13.98;73.51
70982;BME280;58640;51.320;9.456;2023-05-12T22:21:01;99588.84;;;13.94;73.51
70982;BME280;58640;51.320;9.456;2023-05-12T22:23:29;99591.50;;;13.87;73.62
70982;BME280;58640;51.320;9.456;2023-05-12T22:26:02;99591.16;;;13.76;74.45
70982;BME280;58640;51.320;9.456;2023-05-12T22:28:30;99582.84;;;13.77;74.38
70982;BME280;58640;51.320;9.456;2023-05-12T22:30:58;99591.34;;;13.74;74.19
70982;BME280;58640;51.320;9.456;2023-05-12T22:33:31;99582.75;;;13.64;74.44
70982;BME280;58640;51.320;9.456;2023-05-12T22:36:06;99596.38;;;13.56;75.00
70982;BME280;58640;51.320;9.456;2023-05-12T22:38:31;99596.03;;;13.45;75.28
70982;BME280;58640;51.320;9.456;2023-05-12T22:40:57;99587.47;;;13.41;75.39
70982;BME280;58640;51.320;9.456;2023-05-12T22:43:25;99596.94;;;13.37;75.61
70982;BME280;58640;51.320;9.456;2023-05-12T22:45:53;99604.81;;;13.32;75.87
70982;BME280;58640;51.320;9.456;2023-05-12T22:48:21;99599.94;;;13.27;75.58
70982;BME280;58640;51.320;9.456;2023-05-12T22:50:47;99597.81;;;13.23;75.54
70982;BME280;58640;51.320;9.456;2023-05-12T22:53:15;99595.22;;;13.15;75.77
70982;BME280;58640;51.320;9.456;2023-05-12T22:55:41;99604.75;;;13.11;75.61
70982;BME280;58640;51.320;9.456;2023-05-12T22:58:06;99606.97;;;13.07;76.17
70982;BME280;58640;51.320;9.456;2023-05-12T23:00:34;99604.19;;;13.01;76.22
70982;BME280;58640;51.320;9.456;2023-05-12T23:02:59;99605.03;;;13.01;75.54
70982;BME280;58640;51.320;9.456;2023-05-12T23:05:25;99602.69;;;12.98;75.66
70982;BME280;58640;51.320;9.456;2023-05-12T23:07:50;99601.63;;;12.99;75.97
70982;BME280;58640;51.320;9.456;2023-05-12T23:10:16;99595.78;;;12.96;76.29
70982;BME280;58640;51.320;9.456;2023-05-12T23:12:44;99594.94;;;12.95;76.44
70982;BME280;58640;51.320;9.456;2023-05-12T23:15:10;99603.59;;;12.91;76.81
70982;BME280;58640;51.320;9.456;2023-05-12T23:17:35;99600.88;;;12.91;76.86
70982;BME280;58640;51.320;9.456;2023-05-12T23:20:01;99607.78;;;12.93;76.54
70982;BME280;58640;51.320;9.456;2023-05-12T23:22:26;99603.06;;;12.95;75.75
70982;BME280;58640;51.320;9.456;2023-05-12T23:24:52;99599.69;;;12.93;75.85
70982;BME280;58640;51.320;9.456;2023-05-12T23:27:19;99605.09;;;12.93;75.52
70982;BME280;58640;51.320;9.456;2023-05-12T23:29:45;99600.63;;;12.86;75.45
70982;BME280;58640;51.320;9.456;2023-05-12T23:32:10;99596.16;;;12.93;75.03
70982;BME280;58640;51.320;9.456;2023-05-12T23:34:35;99599.50;;;12.95;74.99
70982;BME280;58640;51.320;9.456;2023-05-12T23:37:05;99601.72;;;12.91;74.88
70982;BME280;58640;51.320;9.456;2023-05-12T23:39:30;99595.97;;;12.94;74.45
70982;BME280;58640;51.320;9.456;2023-05-12T23:41:55;99597.94;;;13.00;74.28
70982;BME280;58640;51.320;9.456;2023-05-12T23:44:21;99598.78;;;13.01;74.24
70982;BME280;58640;51.320;9.456;2023-05-12T23:46:46;99595.50;;;13.05;73.10
70982;BME280;58640;51.320;9.456;2023-05-12T23:49:14;99587.31;;;13.13;73.02
70982;BME280;58640;51.320;9.456;2023-05-12T23:51:40;99582.00;;;13.20;72.37
70982;BME280;58640;51.320;9.456;2023-05-12T23:54:05;99585.81;;;13.26;71.75
70982;BME280;58640;51.320;9.456;2023-05-12T23:56:31;99602.22;;;13.24;71.51
70982;BME280;58640;51.320;9.456;2023-05-12T23:58:56;99596.91;;;13.31;69.68
